createdAt,value
2024-03-04T00:02:11.151Z,97102.53
2024-03-04T00:05:14.880Z,97100.16
2024-03-04T00:08:17.663Z,97095.75
2024-03-04T00:11:21.767Z,97098.66
2024-03-04T00:14:25.296Z,97101.44
2024-03-04T00:17:28.703Z,97100.94
2024-03-04T00:20:32.034Z,97103.84
2024-03-04T00:23:37.619Z,97097.63
2024-03-04T00:26:41.108Z,97095.41
2024-03-04T00:29:44.171Z,97089.00
2024-03-04T00:32:47.822Z,97097.28
2024-03-04T00:35:50.877Z,97090.91
2024-03-04T00:38:54.994Z,97087.66
2024-03-04T00:41:58.029Z,97084.88
2024-03-04T00:45:01.801Z,97089.28
2024-03-04T00:48:05.353Z,97093.19
2024-03-04T00:51:08.626Z,97099.00
2024-03-04T00:54:12.024Z,97095.41
2024-03-04T00:57:15.255Z,97094.00
2024-03-04T01:00:19.656Z,97091.69
2024-03-04T01:03:22.966Z,97095.88
2024-03-04T01:06:29.251Z,97097.78
2024-03-04T01:09:32.506Z,97103.59
2024-03-04T01:12:35.422Z,97098.97
2024-03-04T01:15:38.914Z,97093.75
2024-03-04T01:18:42.453Z,97096.91
2024-03-04T01:21:45.532Z,97096.66
2024-03-04T01:24:52.263Z,97101.53
2024-03-04T01:27:55.389Z,97098.63
2024-03-04T01:30:58.441Z,97101.88
2024-03-04T01:34:04.089Z,97101.59
2024-03-04T01:37:11.843Z,97105.47
2024-03-04T01:40:15.303Z,97100.03
2024-03-04T01:43:20.176Z,97099.22
2024-03-04T01:46:23.153Z,97092.19
2024-03-04T01:49:27.116Z,97091.22
2024-03-04T01:52:30.197Z,97099.66
2024-03-04T01:55:40.976Z,97096.72
2024-03-04T01:58:46.248Z,97092.38
2024-03-04T02:01:52.403Z,97093.19
2024-03-04T02:04:56.807Z,97090.88
2024-03-04T02:08:03.455Z,97084.44
2024-03-04T02:11:06.860Z,97087.34
2024-03-04T02:14:09.991Z,97097.13
2024-03-04T02:17:14.420Z,97093.84
2024-03-04T02:20:19.804Z,97089.19
2024-03-04T02:23:22.897Z,97092.50
2024-03-04T02:26:26.194Z,97093.59
2024-03-04T02:29:29.681Z,97090.25
2024-03-04T02:32:33.101Z,97093.84
2024-03-04T02:35:36.083Z,97098.22
2024-03-04T02:38:39.336Z,97092.25
2024-03-04T02:41:42.342Z,97109.00
2024-03-04T02:44:46.687Z,97098.28
2024-03-04T02:47:50.064Z,97102.81
2024-03-04T02:50:53.119Z,97104.63
2024-03-04T02:53:56.541Z,97102.47
2024-03-04T02:57:04.051Z,97097.25
2024-03-04T03:00:07.672Z,97101.09
2024-03-04T03:03:10.617Z,97102.75
2024-03-04T03:06:13.836Z,97097.94
2024-03-04T03:09:16.852Z,97092.50
2024-03-04T03:12:19.821Z,97087.28
2024-03-04T03:15:23.053Z,97091.16
2024-03-04T03:18:26.125Z,97094.34
2024-03-04T03:21:29.515Z,97097.91
2024-03-04T03:24:32.453Z,97090.75
2024-03-04T03:27:35.552Z,97096.81
2024-03-04T03:30:41.872Z,97096.81
2024-03-04T03:33:45.060Z,97089.38
2024-03-04T03:36:48.066Z,97090.34
2024-03-04T03:39:50.961Z,97088.56
2024-03-04T03:42:54.325Z,97095.69
2024-03-04T03:45:57.153Z,97088.34
2024-03-04T03:48:59.953Z,97092.75
2024-03-04T03:52:03.599Z,97095.47
2024-03-04T03:55:06.944Z,97096.97
2024-03-04T03:58:10.273Z,97092.88
2024-03-04T04:01:15.520Z,97100.84
2024-03-04T04:04:19.731Z,97097.16
2024-03-04T04:07:23.988Z,97097.69
2024-03-04T04:10:27.736Z,97100.69
2024-03-04T04:13:30.903Z,97097.53
2024-03-04T04:16:35.036Z,97098.63
2024-03-04T04:19:37.948Z,97100.13
2024-03-04T04:22:42.560Z,97098.78
2024-03-04T04:25:47.946Z,97100.94
2024-03-04T04:28:51.300Z,97101.09
2024-03-04T04:31:54.073Z,97104.28
2024-03-04T04:34:57.214Z,97112.78
2024-03-04T04:38:00.165Z,97106.44
2024-03-04T04:41:03.516Z,97107.00
2024-03-04T04:44:06.345Z,97110.84
2024-03-04T04:47:09.077Z,97117.16
2024-03-04T04:50:13.758Z,97124.31
2024-03-04T04:53:16.933Z,97114.94
2024-03-04T04:56:20.226Z,97114.69
2024-03-04T04:59:23.119Z,97114.00
2024-03-04T05:02:25.968Z,97115.28
2024-03-04T05:05:28.820Z,97122.72
2024-03-04T05:08:31.847Z,97129.31
2024-03-04T05:11:34.777Z,97123.00
2024-03-04T05:14:38.823Z,97122.19
2024-03-04T05:17:42.113Z,97129.16
2024-03-04T05:20:54.320Z,97128.78
2024-03-04T05:23:59.815Z,97135.88
2024-03-04T05:27:02.757Z,97130.97
2024-03-04T05:30:10.542Z,97135.63
2024-03-04T05:33:14.568Z,97143.84
2024-03-04T05:36:18.532Z,97143.56
2024-03-04T05:39:22.950Z,97136.94
2024-03-04T05:42:26.030Z,97139.94
2024-03-04T05:45:31.498Z,97141.44
2024-03-04T05:48:34.668Z,97136.72
2024-03-04T05:51:44.452Z,97147.09
2024-03-04T05:54:47.591Z,97142.78
2024-03-04T05:57:50.616Z,97147.91
2024-03-04T06:00:53.348Z,97148.59
2024-03-04T06:03:56.524Z,97154.38
2024-03-04T06:07:01.797Z,97155.25
2024-03-04T06:10:05.430Z,97150.66
2024-03-04T06:13:08.623Z,97161.56
2024-03-04T06:16:15.907Z,97155.38
2024-03-04T06:19:19.020Z,97152.72
2024-03-04T06:22:21.995Z,97155.41
2024-03-04T06:25:24.956Z,97158.38
2024-03-04T06:28:28.001Z,97156.84
2024-03-04T06:31:30.953Z,97158.59
2024-03-04T06:34:34.130Z,97147.53
2024-03-04T06:37:37.136Z,97151.00
2024-03-04T06:40:40.133Z,97151.66
2024-03-04T06:43:43.586Z,97156.03
2024-03-04T06:46:46.651Z,97158.66
2024-03-04T06:49:50.757Z,97162.84
2024-03-04T06:52:53.730Z,97171.22
2024-03-04T06:55:56.650Z,97164.91
2024-03-04T06:59:02.867Z,97164.94
2024-03-04T07:02:06.446Z,97164.91
2024-03-04T07:05:09.801Z,97161.66
2024-03-04T07:08:12.597Z,97164.28
2024-03-04T07:11:16.565Z,97159.72
2024-03-04T07:14:19.462Z,97158.78
2024-03-04T07:17:22.391Z,97160.06
2024-03-04T07:20:25.120Z,97168.09
2024-03-04T07:23:28.077Z,97166.94
2024-03-04T07:26:30.977Z,97170.53
2024-03-04T07:29:48.658Z,97171.13
2024-03-04T07:32:55.547Z,97170.41
2024-03-04T07:35:58.777Z,97171.00
2024-03-04T07:39:01.617Z,97167.34
2024-03-04T07:42:04.497Z,97173.53
2024-03-04T07:45:08.471Z,97178.38
2024-03-04T07:48:11.339Z,97179.19
2024-03-04T07:51:14.369Z,97175.91
2024-03-04T07:54:17.756Z,97188.59
2024-03-04T07:57:23.968Z,97186.81
2024-03-04T08:00:27.853Z,97179.66
2024-03-04T08:03:30.580Z,97192.88
2024-03-04T08:06:34.373Z,97186.06
2024-03-04T08:09:37.212Z,97196.53
2024-03-04T08:12:39.988Z,97191.16
2024-03-04T08:15:42.836Z,97188.28
2024-03-04T08:18:45.756Z,97197.88
2024-03-04T08:21:49.050Z,97190.00
2024-03-04T08:24:51.899Z,97191.91
2024-03-04T08:27:54.668Z,97190.72
2024-03-04T08:30:57.411Z,97192.56
2024-03-04T08:34:00.287Z,97190.09
2024-03-04T08:37:03.096Z,97197.84
2024-03-04T08:40:07.062Z,97206.16
2024-03-04T08:43:10.563Z,97202.91
2024-03-04T08:46:13.407Z,97203.44
2024-03-04T08:49:16.210Z,97211.25
2024-03-04T08:52:18.972Z,97196.28
2024-03-04T08:55:21.725Z,97196.78
2024-03-04T08:58:24.537Z,97202.34
2024-03-04T09:01:32.724Z,97206.34
2024-03-04T09:04:35.631Z,97202.38
2024-03-04T09:07:38.552Z,97208.88
2024-03-04T09:10:41.837Z,97203.44
2024-03-04T09:13:45.600Z,97212.91
2024-03-04T09:16:48.660Z,97205.59
2024-03-04T09:19:51.536Z,97207.41
2024-03-04T09:22:55.705Z,97209.53
2024-03-04T09:25:58.503Z,97213.31
2024-03-04T09:29:01.290Z,97208.72
2024-03-04T09:32:04.015Z,97206.22
2024-03-04T09:35:06.796Z,97214.13
2024-03-04T09:38:09.668Z,97210.22
2024-03-04T09:41:12.549Z,97208.47
2024-03-04T09:44:15.890Z,97204.97
2024-03-04T09:47:20.510Z,97214.00
2024-03-04T09:50:24.290Z,97214.72
2024-03-04T09:53:28.918Z,97213.31
2024-03-04T09:56:31.936Z,97211.88
2024-03-04T09:59:34.832Z,97210.91
2024-03-04T10:02:37.740Z,97213.75
2024-03-04T10:05:41.567Z,97205.50
2024-03-04T10:08:44.632Z,97204.81
2024-03-04T10:11:47.734Z,97208.19
2024-03-04T10:15:08.875Z,97214.19
2024-03-04T10:18:12.640Z,97207.63
2024-03-04T10:21:15.509Z,97209.28
2024-03-04T10:24:18.364Z,97209.31
2024-03-04T10:27:21.046Z,97201.63
2024-03-04T10:30:26.476Z,97196.38
2024-03-04T10:33:33.404Z,97204.84
2024-03-04T10:36:36.081Z,97204.00
2024-03-04T10:39:39.080Z,97206.94
2024-03-04T10:42:43.382Z,97206.09
2024-03-04T10:45:46.113Z,97196.75
2024-03-04T10:48:49.304Z,97196.03
2024-03-04T10:52:04.089Z,97195.66
2024-03-04T10:55:15.763Z,97191.88
2024-03-04T10:58:18.647Z,97186.84
2024-03-04T11:01:22.326Z,97186.88
2024-03-04T11:04:26.147Z,97185.72
2024-03-04T11:07:32.195Z,97177.44
2024-03-04T11:10:43.010Z,97181.38
2024-03-04T11:14:21.228Z,97172.59
2024-03-04T11:17:52.014Z,97172.97
2024-03-04T11:20:55.014Z,97173.88
2024-03-04T11:23:58.080Z,97173.69
2024-03-04T11:27:01.220Z,97171.28
2024-03-04T11:30:07.266Z,97179.41
2024-03-04T11:33:45.526Z,97168.00
2024-03-04T11:36:51.296Z,97172.41
2024-03-04T11:39:57.203Z,97169.00
2024-03-04T11:43:00.095Z,97168.66
2024-03-04T11:46:03.034Z,97164.84
2024-03-04T11:49:28.631Z,97167.03
2024-03-04T11:52:36.728Z,97167.63
2024-03-04T11:55:39.561Z,97165.19
2024-03-04T11:58:42.693Z,97155.63
2024-03-04T12:01:45.578Z,97168.44
2024-03-04T12:04:48.732Z,97163.97
2024-03-04T12:07:51.631Z,97165.22
2024-03-04T12:10:54.705Z,97160.50
2024-03-04T12:13:57.960Z,97157.47
2024-03-04T12:17:02.048Z,97154.22
2024-03-04T12:20:05.501Z,97155.25
2024-03-04T12:23:08.333Z,97148.53
2024-03-04T12:26:14.969Z,97145.22
2024-03-04T12:29:25.241Z,97140.91
2024-03-04T12:32:28.878Z,97137.72
2024-03-04T12:35:31.742Z,97134.03
2024-03-04T12:38:35.114Z,97136.66
2024-03-04T12:41:37.886Z,97139.97
2024-03-04T12:44:40.750Z,97154.81
2024-03-04T12:47:43.532Z,97150.13
2024-03-04T12:50:47.185Z,97146.50
2024-03-04T12:53:50.002Z,97149.72
2024-03-04T12:56:52.824Z,97144.06
2024-03-04T12:59:58.539Z,97149.72
2024-03-04T13:03:01.306Z,97140.78
2024-03-04T13:06:04.346Z,97145.25
2024-03-04T13:09:07.260Z,97148.72
2024-03-04T13:12:11.002Z,97146.09
2024-03-04T13:15:13.905Z,97145.28
2024-03-04T13:18:16.728Z,97147.31
2024-03-04T13:21:19.708Z,97147.09
2024-03-04T13:24:22.611Z,97151.38
2024-03-04T13:27:26.130Z,97133.66
2024-03-04T13:30:29.034Z,97147.28
2024-03-04T13:33:31.945Z,97148.69
2024-03-04T13:36:35.048Z,97142.00
2024-03-04T13:39:38.091Z,97139.97
2024-03-04T13:42:42.573Z,97139.56
2024-03-04T13:45:45.392Z,97137.53
2024-03-04T13:48:48.706Z,97129.38
2024-03-04T13:51:51.755Z,97126.50
2024-03-04T13:54:54.572Z,97126.09
2024-03-04T13:57:57.514Z,97126.09
2024-03-04T14:01:01.133Z,97124.09
2024-03-04T14:04:04.268Z,97118.00
2024-03-04T14:07:07.862Z,97117.59
2024-03-04T14:10:14.034Z,97119.97
2024-03-04T14:13:17.196Z,97110.22
2024-03-04T14:16:20.143Z,97110.88
2024-03-04T14:19:23.355Z,97109.66
2024-03-04T14:22:26.489Z,97108.78
2024-03-04T14:25:29.428Z,97108.25
2024-03-04T14:28:33.264Z,97109.41
2024-03-04T14:31:36.418Z,97112.66
2024-03-04T14:34:39.723Z,97108.56
2024-03-04T14:37:42.895Z,97110.22
2024-03-04T14:40:46.522Z,97113.25
2024-03-04T14:43:49.808Z,97110.44
2024-03-04T14:46:52.997Z,97116.16
2024-03-04T14:49:55.918Z,97117.53
2024-03-04T14:52:59.607Z,97118.31
2024-03-04T14:56:02.781Z,97120.81
2024-03-04T14:59:05.718Z,97120.97
2024-03-04T15:02:08.833Z,97119.16
2024-03-04T15:05:13.252Z,97119.22
2024-03-04T15:08:17.914Z,97115.13
2024-03-04T15:11:21.411Z,97119.41
2024-03-04T15:14:24.400Z,97120.03
2024-03-04T15:17:27.211Z,97124.09
2024-03-04T15:20:30.104Z,97123.88
2024-03-04T15:23:34.506Z,97124.03
2024-03-04T15:26:37.989Z,97116.16
2024-03-04T15:29:40.835Z,97116.75
2024-03-04T15:32:46.557Z,97117.13
2024-03-04T15:35:51.376Z,97124.06
2024-03-04T15:38:55.989Z,97119.34
2024-03-04T15:41:58.740Z,97125.69
2024-03-04T15:45:02.195Z,97124.66
2024-03-04T15:48:08.174Z,97131.75
2024-03-04T15:51:11.037Z,97129.09
2024-03-04T15:54:13.906Z,97132.94
2024-03-04T15:57:16.855Z,97128.06
2024-03-04T16:00:19.720Z,97127.22
2024-03-04T16:03:22.474Z,97133.94
2024-03-04T16:06:35.350Z,97128.63
2024-03-04T16:09:38.337Z,97127.59
2024-03-04T16:12:41.187Z,97125.88
2024-03-04T16:15:52.440Z,97135.56
2024-03-04T16:18:57.321Z,97138.13
2024-03-04T16:22:00.321Z,97155.34
2024-03-04T16:25:03.411Z,97157.31
2024-03-04T16:28:07.183Z,97153.13
2024-03-04T16:31:10.969Z,97148.94
2024-03-04T16:34:14.338Z,97144.75
2024-03-04T16:37:17.599Z,97156.38
2024-03-04T16:40:20.609Z,97154.69
2024-03-04T16:43:23.934Z,97157.72
2024-03-04T16:46:26.796Z,97154.28
2024-03-04T16:49:30.101Z,97156.84
2024-03-04T16:52:33.331Z,97161.22
2024-03-04T16:55:36.395Z,97152.97
2024-03-04T16:58:39.535Z,97162.19
2024-03-04T17:01:46.030Z,97157.06
2024-03-04T17:04:53.034Z,97164.41
2024-03-04T17:07:55.953Z,97165.88
2024-03-04T17:10:59.176Z,97170.97
2024-03-04T17:14:02.221Z,97175.69
2024-03-04T17:17:08.135Z,97176.59
2024-03-04T17:20:11.977Z,97174.72
2024-03-04T17:23:16.628Z,97175.91
2024-03-04T17:26:20.092Z,97177.78
2024-03-04T17:29:23.108Z,97178.47
2024-03-04T17:32:26.175Z,97175.44
2024-03-04T17:35:29.169Z,97170.06
2024-03-04T17:38:32.208Z,97175.88
2024-03-04T17:41:35.661Z,97178.19
2024-03-04T17:44:41.118Z,97173.84
2024-03-04T17:47:44.199Z,97177.22
2024-03-04T17:50:47.202Z,97178.50
2024-03-04T17:53:50.151Z,97180.09
2024-03-04T17:56:53.146Z,97178.50
2024-03-04T17:59:56.314Z,97185.94
2024-03-04T18:02:59.338Z,97186.28
2024-03-04T18:06:02.321Z,97189.63
2024-03-04T18:09:05.541Z,97190.53
2024-03-04T18:12:08.789Z,97187.13
2024-03-04T18:15:11.807Z,97190.91
2024-03-04T18:18:14.595Z,97197.50
2024-03-04T18:21:18.114Z,97193.72
2024-03-04T18:24:21.058Z,97190.09
2024-03-04T18:27:24.273Z,97189.97
2024-03-04T18:30:31.806Z,97191.94
2024-03-04T18:33:35.256Z,97194.41
2024-03-04T18:36:47.962Z,97194.09
2024-03-04T18:40:01.244Z,97183.78
2024-03-04T18:43:14.388Z,97194.59
2024-03-04T18:46:17.904Z,97193.47
2024-03-04T18:49:21.080Z,97189.38
2024-03-04T18:52:26.021Z,97195.28
2024-03-04T18:55:29.341Z,97188.72
2024-03-04T18:58:32.543Z,97196.91
2024-03-04T19:01:35.660Z,97198.72
2024-03-04T19:04:39.777Z,97196.09
2024-03-04T19:07:42.904Z,97196.91
2024-03-04T19:10:48.707Z,97199.38
2024-03-04T19:13:53.825Z,97204.25
2024-03-04T19:16:56.663Z,97201.28
2024-03-04T19:19:59.794Z,97201.97
2024-03-04T19:23:02.824Z,97203.59
2024-03-04T19:26:07.402Z,97203.09
2024-03-04T19:29:14.844Z,97204.56
2024-03-04T19:32:17.693Z,97207.94
2024-03-04T19:35:22.590Z,97213.53
2024-03-04T19:38:25.609Z,97213.41
2024-03-04T19:41:29.286Z,97209.44
2024-03-04T19:44:32.898Z,97214.31
2024-03-04T19:47:37.119Z,97208.06
2024-03-04T19:50:40.027Z,97215.91
2024-03-04T19:53:45.685Z,97215.91
2024-03-04T19:56:51.663Z,97216.88
2024-03-04T19:59:56.392Z,97221.09
2024-03-04T20:03:04.038Z,97217.81
2024-03-04T20:06:07.816Z,97222.72
2024-03-04T20:09:15.502Z,97216.59
2024-03-04T20:12:20.401Z,97221.84
2024-03-04T20:15:23.209Z,97214.16
2024-03-04T20:18:28.973Z,97221.09
2024-03-04T20:21:33.874Z,97219.16
2024-03-04T20:24:37.819Z,97223.03
2024-03-04T20:27:40.925Z,97223.88
2024-03-04T20:30:48.932Z,97220.97
2024-03-04T20:33:52.605Z,97220.91
2024-03-04T20:36:56.216Z,97235.56
2024-03-04T20:40:02.337Z,97231.25
2024-03-04T20:43:06.231Z,97227.13
2024-03-04T20:46:09.635Z,97225.94
2024-03-04T20:49:13.792Z,97221.81
2024-03-04T20:52:19.105Z,97225.22
2024-03-04T20:55:23.162Z,97220.28
2024-03-04T20:58:25.900Z,97221.91
2024-03-04T21:01:28.982Z,97218.66
2024-03-04T21:04:32.159Z,97213.44
2024-03-04T21:07:40.910Z,97219.91
2024-03-04T21:10:44.368Z,97218.78
2024-03-04T21:13:51.361Z,97214.69
2024-03-04T21:16:54.904Z,97218.06
2024-03-04T21:19:58.030Z,97218.00
2024-03-04T21:23:04.507Z,97224.34
2024-03-04T21:26:07.823Z,97221.34
2024-03-04T21:29:10.985Z,97226.53
2024-03-04T21:32:14.145Z,97223.22
2024-03-04T21:35:20.670Z,97219.78
2024-03-04T21:38:23.934Z,97224.34
2024-03-04T21:41:26.780Z,97221.34
2024-03-04T21:44:29.696Z,97218.69
2024-03-04T21:47:32.538Z,97222.56
2024-03-04T21:50:36.053Z,97224.00
2024-03-04T21:53:39.018Z,97222.63
2024-03-04T21:56:44.944Z,97216.59
2024-03-04T21:59:48.590Z,97221.81
2024-03-04T22:02:51.624Z,97215.47
2024-03-04T22:05:55.402Z,97223.75
2024-03-04T22:08:58.337Z,97223.38
2024-03-04T22:12:01.475Z,97228.81
2024-03-04T22:15:06.030Z,97224.94
2024-03-04T22:18:11.599Z,97230.16
2024-03-04T22:21:14.439Z,97220.03
2024-03-04T22:24:17.994Z,97223.31
2024-03-04T22:27:21.857Z,97219.19
2024-03-04T22:30:24.710Z,97224.41
2024-03-04T22:33:28.183Z,97227.16
2024-03-04T22:36:32.298Z,97225.25
2024-03-04T22:39:39.432Z,97230.16
2024-03-04T22:42:45.496Z,97224.19
2024-03-04T22:45:48.265Z,97222.41
2024-03-04T22:48:51.113Z,97228.06
2024-03-04T22:51:54.233Z,97234.81
2024-03-04T22:54:56.938Z,97229.59
2024-03-04T22:57:59.917Z,97227.00
2024-03-04T23:01:05.630Z,97237.06
2024-03-04T23:04:08.733Z,97226.56
2024-03-04T23:07:12.832Z,97240.84
2024-03-04T23:10:16.757Z,97238.81
2024-03-04T23:13:20.671Z,97241.13
2024-03-04T23:16:26.758Z,97240.16
2024-03-04T23:19:29.591Z,97241.41
2024-03-04T23:22:33.600Z,97242.16
2024-03-04T23:25:36.312Z,97242.59
2024-03-04T23:28:40.148Z,97241.19
2024-03-04T23:31:42.908Z,97236.09
2024-03-04T23:34:45.854Z,97243.34
2024-03-04T23:37:49.390Z,97242.47
2024-03-04T23:40:52.158Z,97240.53
2024-03-04T23:43:55.647Z,97244.41
2024-03-04T23:46:58.623Z,97245.75
2024-03-04T23:50:04.507Z,97248.56
2024-03-04T23:53:07.452Z,97238.63
2024-03-04T23:56:10.362Z,97242.06
2024-03-04T23:59:13.202Z,97244.84
